Ford, Virginia
Current Conditions -  °F | °C
As of 3:35 PM on Wednesday 26 Nov 2014 (Local Time) from KBKT Reporting Station
Overcast Overcast  
Wind Chill: 28°   Ceiling: 600
Heat Index: 36°   Visibility: 7mi
Dew Point: 35°   Wind: 13mph
Humidity: 98%   Direction: 330°NNW
Pressure: 29.96"   Gusts: 16mph
Location:  37.15°N, 77.75°W
Report Text: KBKT 262035Z AUTO 33011G14KT 7SM OVC006 02/02 A2996 RMK AO1 T00220019
Loading
Personal Weather Stations






























Interactive Weather Map New forecast layout! Learn more

10-Day Weather Forecast

Advertisements
Track Severe Weather on mobile